Time;durP1;ratioP1;P1;durP2;ratioP2;P2;SDS_P1;SDS_P2;PMS_P1;PMS_P2;Temp;Humidity;BMP_temperature;BMP_pressure;BME280_temperature;BME280_humidity;BME280_pressure;Samples;Min_cycle;Max_cycle;Signal;HPM_P1;HPM_P2
2023/07/20 00:00:45;;;;;;;3.85;1.80;;;;;;;21.38;66.59;99982.34;5087927;28;20468;-59
2023/07/20 00:03:18;;;;;;;5.18;1.60;;;;;;;21.27;67.83;99982.31;5087106;28;20369;-60
2023/07/20 00:05:45;;;;;;;4.82;1.58;;;;;;;21.11;67.65;99977.19;5087324;28;20135;-60
2023/07/20 00:08:11;;;;;;;3.38;1.65;;;;;;;21.03;67.77;99978.75;5086664;28;20043;-59
2023/07/20 00:10:36;;;;;;;4.35;1.90;;;;;;;20.94;69.36;99982.97;5089123;28;20032;-60
2023/07/20 00:13:01;;;;;;;4.22;1.88;;;;;;;20.83;70.40;99981.09;5089485;28;20016;-60
2023/07/20 00:15:27;;;;;;;4.38;1.67;;;;;;;20.68;71.58;99971.44;5088087;28;20566;-59
2023/07/20 00:17:52;;;;;;;4.63;1.88;;;;;;;20.62;72.45;99985.41;5088800;28;20111;-60
2023/07/20 00:20:18;;;;;;;8.00;1.92;;;;;;;20.54;72.32;99979.69;5088774;28;20028;-60
2023/07/20 00:22:43;;;;;;;3.83;1.98;;;;;;;20.45;73.27;99987.59;5089247;28;20035;-59
2023/07/20 00:25:11;;;;;;;4.18;1.67;;;;;;;20.37;74.16;99985.47;5088664;28;20063;-60
2023/07/20 00:27:36;;;;;;;3.95;1.67;;;;;;;20.27;75.05;99980.84;5089086;28;20100;-60
2023/07/20 00:30:02;;;;;;;4.18;1.70;;;;;;;20.19;75.54;99983.25;5083953;28;20023;-59
2023/07/20 00:32:27;;;;;;;4.15;1.80;;;;;;;20.13;76.26;99976.41;5087945;28;20028;-59
2023/07/20 00:34:53;;;;;;;5.50;1.90;;;;;;;20.06;76.45;99979.66;5088013;28;20028;-59
2023/07/20 00:37:18;;;;;;;4.88;2.15;;;;;;;19.96;77.03;99974.06;5071960;28;20017;-59
2023/07/20 00:39:44;;;;;;;4.28;2.03;;;;;;;19.88;77.16;99981.88;5066761;28;20078;-59
2023/07/20 00:42:09;;;;;;;4.03;1.75;;;;;;;19.83;77.55;99980.44;5074147;28;20046;-60
2023/07/20 00:44:34;;;;;;;4.80;2.10;;;;;;;19.79;77.87;99981.63;5086415;28;20130;-60
2023/07/20 00:47:00;;;;;;;3.67;1.65;;;;;;;19.75;78.25;99975.59;5086142;28;20089;-60
2023/07/20 00:49:25;;;;;;;5.22;1.95;;;;;;;19.69;79.02;99976.03;5085633;28;20034;-60
2023/07/20 00:51:51;;;;;;;6.60;1.95;;;;;;;19.61;79.25;99976.56;5086446;28;20023;-60
2023/07/20 00:54:17;;;;;;;4.15;2.05;;;;;;;19.51;79.79;99969.22;5086255;28;20395;-60
2023/07/20 00:56:43;;;;;;;3.75;2.20;;;;;;;19.42;80.00;99975.25;5085555;28;20044;-60
2023/07/20 00:59:09;;;;;;;5.50;1.77;;;;;;;19.32;80.60;99976.88;5067534;28;20024;-59
2023/07/20 01:01:35;;;;;;;5.45;2.15;;;;;;;19.27;80.70;99978.97;5067966;28;20557;-60
2023/07/20 01:04:00;;;;;;;5.57;1.90;;;;;;;19.20;81.26;99978.53;5067863;28;20031;-59
2023/07/20 01:06:54;;;;;;;7.05;1.90;;;;;;;19.13;81.12;99979.91;5082401;28;20111;-59
2023/07/20 01:09:34;;;;;;;4.70;2.05;;;;;;;19.11;81.15;99983.69;5080291;28;20044;-59
2023/07/20 01:12:07;;;;;;;6.28;2.70;;;;;;;19.06;81.07;99975.06;5087168;28;20024;-59
2023/07/20 01:14:34;;;;;;;4.25;1.98;;;;;;;19.07;81.42;99985.75;5088223;28;20035;-59
2023/07/20 01:16:59;;;;;;;5.85;2.17;;;;;;;19.04;82.00;99979.69;5072962;28;20507;-60
2023/07/20 01:19:25;;;;;;;5.90;1.83;;;;;;;18.93;82.67;99975.00;5086721;28;20027;-60
2023/07/20 01:22:09;;;;;;;5.93;2.55;;;;;;;18.92;82.90;99975.97;5088470;28;20472;-60
2023/07/20 01:24:51;;;;;;;4.32;2.33;;;;;;;18.88;83.33;99976.31;5087945;28;20174;-60
2023/07/20 01:27:43;;;;;;;2.97;1.60;;;;;;;18.77;84.09;99974.31;5087044;28;20482;-59
2023/07/20 01:30:54;;;;;;;8.05;2.00;;;;;;;18.72;84.51;99971.06;5087556;28;20024;-59
2023/07/20 01:33:21;;;;;;;6.38;2.20;;;;;;;18.68;84.35;99971.38;5086254;28;20764;-59
2023/07/20 01:35:59;;;;;;;5.55;2.83;;;;;;;18.63;85.04;99970.81;5086855;28;20032;-60
2023/07/20 01:38:26;;;;;;;5.05;2.80;;;;;;;18.61;85.10;99970.03;5084480;28;20130;-59
2023/07/20 01:40:52;;;;;;;4.90;2.35;;;;;;;18.61;85.10;99961.94;5085124;28;20031;-59
2023/07/20 01:43:18;;;;;;;5.07;2.30;;;;;;;18.72;84.73;99965.66;5087565;28;20518;-60
2023/07/20 01:45:43;;;;;;;7.32;3.35;;;;;;;18.72;85.20;99970.19;5089022;28;20040;-60
2023/07/20 01:48:09;;;;;;;6.13;2.72;;;;;;;18.71;85.24;99971.16;5089238;28;20039;-60
2023/07/20 01:50:35;;;;;;;5.95;2.65;;;;;;;18.73;83.52;99974.63;5089687;28;20528;-59
2023/07/20 01:53:01;;;;;;;5.28;2.83;;;;;;;18.78;81.35;99967.09;5090645;28;20056;-60
2023/07/20 01:55:26;;;;;;;4.00;2.13;;;;;;;18.85;78.71;99963.88;5090782;28;20031;-60
2023/07/20 01:57:52;;;;;;;7.03;2.38;;;;;;;18.94;78.61;99965.09;5080027;28;20020;-59
2023/07/20 02:00:21;;;;;;;4.82;2.35;;;;;;;19.01;79.17;99967.25;5079924;28;20506;-59
2023/07/20 02:02:46;;;;;;;5.53;2.08;;;;;;;19.02;78.92;99969.00;5088456;28;20098;-60
2023/07/20 02:05:12;;;;;;;7.03;2.95;;;;;;;19.04;79.15;99966.19;5090609;28;20054;-59
2023/07/20 02:07:37;;;;;;;3.97;2.10;;;;;;;18.95;79.73;99961.41;5091299;28;20596;-59
2023/07/20 02:10:03;;;;;;;4.20;2.20;;;;;;;18.89;79.90;99959.16;5091473;28;20028;-59
2023/07/20 02:12:28;;;;;;;5.68;2.42;;;;;;;18.81;80.93;99958.81;5090579;28;20400;-60
2023/07/20 02:14:55;;;;;;;3.75;2.17;;;;;;;18.78;80.56;99965.25;5091444;28;20109;-60
2023/07/20 02:17:20;;;;;;;5.53;1.95;;;;;;;18.77;81.59;99968.03;5090909;28;20431;-60
2023/07/20 02:19:46;;;;;;;4.82;1.80;;;;;;;18.73;82.18;99958.44;5091390;28;20030;-60
2023/07/20 02:22:12;;;;;;;4.00;1.90;;;;;;;18.68;82.40;99974.06;5090927;28;20050;-59
2023/07/20 02:24:37;;;;;;;5.57;2.25;;;;;;;18.65;82.93;99971.56;5089856;28;20108;-59
2023/07/20 02:27:03;;;;;;;4.00;2.10;;;;;;;18.65;83.11;99971.56;5090386;28;20027;-60
2023/07/20 02:29:28;;;;;;;6.00;2.40;;;;;;;18.64;83.56;99972.53;5089529;28;20085;-60
2023/07/20 02:31:53;;;;;;;5.70;2.17;;;;;;;18.61;83.69;99972.72;5073402;28;20162;-60
2023/07/20 02:34:19;;;;;;;6.07;2.28;;;;;;;18.61;84.05;99970.03;5085448;28;20024;-60
2023/07/20 02:36:46;;;;;;;4.65;2.08;;;;;;;18.59;84.08;99966.56;5088015;28;20571;-60
2023/07/20 02:39:11;;;;;;;5.03;3.30;;;;;;;18.55;83.86;99975.84;5087407;28;20024;-59
2023/07/20 02:41:36;;;;;;;4.57;2.20;;;;;;;18.54;84.66;99974.97;5088423;28;20482;-59
2023/07/20 02:44:03;;;;;;;4.68;2.40;;;;;;;18.46;84.96;99976.44;5088027;28;20624;-60
2023/07/20 02:46:30;;;;;;;6.60;2.60;;;;;;;18.38;84.95;99976.91;5088995;28;20051;-59
2023/07/20 02:48:55;;;;;;;3.78;1.95;;;;;;;18.29;85.64;99975.66;5089373;28;20016;-60
2023/07/20 02:51:20;;;;;;;4.35;2.25;;;;;;;18.29;85.74;99980.19;5087973;28;20032;-60
2023/07/20 02:53:46;;;;;;;5.10;2.20;;;;;;;18.26;86.52;99978.56;5089089;28;20043;-60
2023/07/20 02:56:11;;;;;;;5.22;2.10;;;;;;;18.25;86.94;99979.50;5089387;28;20024;-60
2023/07/20 02:58:43;;;;;;;7.35;2.70;;;;;;;18.24;87.51;99976.91;5088376;28;20036;-59
2023/07/20 03:01:09;;;;;;;4.60;2.47;;;;;;;18.22;87.75;99979.72;5087941;28;20042;-59
2023/07/20 03:03:38;;;;;;;4.80;2.47;;;;;;;18.24;87.68;99974.22;5088874;28;20040;-59
2023/07/20 03:06:04;;;;;;;4.45;2.42;;;;;;;18.24;88.13;99975.09;5089847;28;20082;-60
2023/07/20 03:08:30;;;;;;;5.13;2.40;;;;;;;18.21;87.90;99969.91;5090351;28;20038;-60
2023/07/20 03:10:55;;;;;;;7.90;3.33;;;;;;;18.21;88.42;99972.59;5089404;28;20570;-59
2023/07/20 03:13:21;;;;;;;4.95;2.00;;;;;;;18.24;88.06;99969.72;5089292;28;20035;-59
2023/07/20 03:15:47;;;;;;;3.85;2.20;;;;;;;18.24;88.80;99975.09;5082995;28;20040;-60
2023/07/20 03:18:12;;;;;;;4.82;2.47;;;;;;;18.28;88.80;99968.56;5068643;28;20088;-60
2023/07/20 03:20:38;;;;;;;6.35;2.60;;;;;;;18.28;88.79;99975.78;5086435;28;20107;-59
2023/07/20 03:23:04;;;;;;;5.05;2.42;;;;;;;18.30;88.69;99977.38;5088342;28;20119;-59
2023/07/20 03:25:29;;;;;;;5.53;2.67;;;;;;;18.32;88.54;99975.47;5086586;28;20032;-60
2023/07/20 03:27:55;;;;;;;5.35;2.55;;;;;;;18.36;88.96;99977.00;5087593;28;20096;-60
2023/07/20 03:30:20;;;;;;;5.38;2.55;;;;;;;18.40;88.68;99974.16;5087837;28;20103;-59
2023/07/20 03:32:46;;;;;;;5.55;2.38;;;;;;;18.40;89.13;99974.16;5086596;28;20388;-59
2023/07/20 03:35:11;;;;;;;5.30;2.28;;;;;;;18.44;89.70;99978.34;5087370;28;20127;-60
2023/07/20 03:37:38;;;;;;;6.10;2.65;;;;;;;18.36;90.13;99974.31;5086883;28;20039;-59
2023/07/20 03:40:04;;;;;;;7.57;2.67;;;;;;;18.55;89.52;99989.31;5086388;28;20024;-59
2023/07/20 03:42:30;;;;;;;4.68;2.35;;;;;;;18.59;89.70;99988.13;5086927;28;20643;-60
2023/07/20 03:44:56;;;;;;;4.95;2.38;;;;;;;18.59;89.84;99990.81;5087215;28;20035;-59
2023/07/20 03:47:21;;;;;;;5.78;2.55;;;;;;;18.58;89.67;99999.88;5088052;28;20032;-59
2023/07/20 03:49:46;;;;;;;5.88;3.13;;;;;;;18.59;89.08;99996.22;5086951;28;20028;-60
2023/07/20 03:52:12;;;;;;;4.72;2.78;;;;;;;18.59;89.15;99998.91;5089062;28;20035;-59
2023/07/20 03:54:37;;;;;;;4.85;2.70;;;;;;;18.62;89.18;99996.00;5087990;28;20030;-59
2023/07/20 03:57:03;;;;;;;5.55;2.53;;;;;;;18.62;88.82;99993.31;5083882;28;20028;-60
2023/07/20 03:59:28;;;;;;;4.93;2.58;;;;;;;18.61;88.71;99996.97;5068423;28;20131;-60
2023/07/20 04:01:54;;;;;;;4.55;2.38;;;;;;;18.58;89.90;99999.88;5087168;28;20199;-60
2023/07/20 04:04:19;;;;;;;5.00;2.83;;;;;;;18.63;89.95;100003.13;5068920;28;20404;-59
2023/07/20 04:06:45;;;;;;;6.47;2.55;;;;;;;18.67;90.09;100010.03;5059823;28;20111;-59
2023/07/20 04:09:12;;;;;;;3.90;2.28;;;;;;;18.69;89.56;100013.50;5068337;28;20024;-60
2023/07/20 04:11:38;;;;;;;5.53;2.53;;;;;;;18.73;89.38;100006.97;5067468;28;20051;-59
2023/07/20 04:14:03;;;;;;;5.10;2.80;;;;;;;18.79;89.92;100004.72;5068116;28;20035;-60
2023/07/20 04:16:29;;;;;;;4.95;2.60;;;;;;;18.88;88.89;100008.66;5068028;28;20476;-59
2023/07/20 04:18:56;;;;;;;5.53;2.72;;;;;;;18.93;87.55;100006.50;5067246;28;20032;-59
2023/07/20 04:21:22;;;;;;;4.75;2.47;;;;;;;19.02;86.58;100022.94;5066388;28;20337;-60
2023/07/20 04:23:47;;;;;;;4.75;2.63;;;;;;;19.11;85.13;100011.50;5066290;28;20040;-59
2023/07/20 04:26:14;;;;;;;4.50;2.63;;;;;;;19.20;84.21;100007.31;5065995;28;20028;-60
2023/07/20 04:28:42;;;;;;;4.07;2.28;;;;;;;19.27;84.74;99996.03;5065731;28;20127;-59
2023/07/20 04:31:12;;;;;;;4.55;2.28;;;;;;;19.39;85.22;100002.44;5065753;28;20533;-60
2023/07/20 04:33:37;;;;;;;5.68;2.53;;;;;;;19.42;86.53;100010.34;5062696;28;20044;-60
2023/07/20 04:36:03;;;;;;;5.10;2.55;;;;;;;19.44;87.85;100013.75;5066908;28;20032;-59
2023/07/20 04:38:28;;;;;;;4.30;2.38;;;;;;;19.44;88.43;100013.75;5066209;28;20090;-60
2023/07/20 04:40:54;;;;;;;6.07;2.67;;;;;;;19.45;88.56;100020.91;5066736;28;20073;-60
2023/07/20 04:43:19;;;;;;;5.10;2.35;;;;;;;19.47;88.60;100018.97;5068064;28;20028;-60
2023/07/20 04:45:45;;;;;;;5.00;2.28;;;;;;;19.51;88.66;100018.66;5067809;28;20249;-60
2023/07/20 04:48:12;;;;;;;9.68;2.58;;;;;;;19.58;88.03;100016.41;5067183;28;20085;-59
2023/07/20 04:50:39;;;;;;;5.50;2.63;;;;;;;19.65;87.65;100007.75;5068097;28;20350;-59
2023/07/20 04:53:05;;;;;;;5.28;2.50;;;;;;;19.73;88.00;100015.34;5067997;28;20024;-60
2023/07/20 04:55:30;;;;;;;6.72;2.58;;;;;;;19.81;87.41;100012.09;5066481;28;20043;-60
2023/07/20 04:57:56;;;;;;;7.45;2.13;;;;;;;19.87;87.48;100004.41;5067406;28;20036;-60
2023/07/20 05:00:21;;;;;;;4.47;2.42;;;;;;;19.96;85.88;100006.47;5067266;28;20051;-60
2023/07/20 05:02:48;;;;;;;5.22;2.63;;;;;;;20.07;85.38;100014.66;5067921;28;20098;-60
2023/07/20 05:05:15;;;;;;;8.82;2.85;;;;;;;20.14;84.05;100010.56;5079407;28;20040;-59
2023/07/20 05:07:40;;;;;;;4.68;2.35;;;;;;;20.27;83.17;100014.13;5086920;28;20031;-59
2023/07/20 05:10:06;;;;;;;7.13;2.20;;;;;;;20.30;81.53;100021.16;5087528;28;20100;-59
2023/07/20 05:12:31;;;;;;;5.65;2.97;;;;;;;20.32;81.32;100025.47;5086406;28;20031;-59
2023/07/20 05:14:57;;;;;;;5.15;2.45;;;;;;;20.38;81.14;100022.31;5087020;28;20032;-60
2023/07/20 05:17:22;;;;;;;5.95;2.80;;;;;;;20.56;81.17;100017.44;5088529;28;20392;-60
2023/07/20 05:19:48;;;;;;;7.25;2.53;;;;;;;20.61;80.04;100018.81;5090104;28;20019;-60
2023/07/20 05:22:14;;;;;;;5.32;2.38;;;;;;;20.69;79.16;100013.69;5086589;28;20029;-60
2023/07/20 05:24:39;;;;;;;5.38;2.38;;;;;;;20.76;77.73;100011.41;5082485;28;20090;-60
2023/07/20 05:27:05;;;;;;;7.95;2.40;;;;;;;20.82;77.78;100014.50;5088448;28;20296;-60
2023/07/20 05:29:31;;;;;;;9.02;2.45;;;;;;;20.94;77.88;100013.59;5089394;28;20024;-60
2023/07/20 05:31:57;;;;;;;10.35;2.45;;;;;;;20.97;77.32;100004.44;5088730;28;20040;-60
2023/07/20 05:34:22;;;;;;;10.38;3.83;;;;;;;21.12;77.48;100010.53;5089685;28;20036;-60
2023/07/20 05:36:47;;;;;;;6.45;2.10;;;;;;;21.21;76.57;100023.34;5076074;28;20039;-60
2023/07/20 05:39:13;;;;;;;21.65;5.60;;;;;;;21.31;76.27;100027.06;5091100;28;20112;-60
2023/07/20 05:41:38;;;;;;;10.85;3.08;;;;;;;21.40;76.78;100015.56;5091062;28;20032;-60
2023/07/20 05:44:04;;;;;;;8.70;2.88;;;;;;;21.46;76.98;100015.97;5090007;28;20615;-60
2023/07/20 05:46:29;;;;;;;10.32;3.08;;;;;;;21.42;76.63;100019.00;5070399;28;20035;-60
2023/07/20 05:48:54;;;;;;;6.68;2.28;;;;;;;21.46;76.11;100015.97;5079534;28;20520;-60
2023/07/20 05:51:20;;;;;;;3.63;2.13;;;;;;;21.46;74.47;100015.09;5090027;28;20029;-60
2023/07/20 05:53:45;;;;;;;5.07;2.17;;;;;;;21.38;72.98;100018.41;5089357;28;20034;-60
2023/07/20 05:56:11;;;;;;;7.03;2.30;;;;;;;21.35;72.61;100029.44;5088070;28;20039;-60
2023/07/20 05:58:36;;;;;;;4.55;1.70;;;;;;;21.26;71.67;100021.16;5084036;28;20032;-59
2023/07/20 06:01:05;;;;;;;5.10;2.35;;;;;;;21.36;71.62;100024.88;5083427;28;20113;-60
2023/07/20 06:03:31;;;;;;;4.60;2.13;;;;;;;21.52;71.60;100020.88;5086761;28;20169;-60
2023/07/20 06:06:01;;;;;;;7.88;2.17;;;;;;;21.65;69.57;100024.38;5071764;28;20051;-60
2023/07/20 06:08:30;;;;;;;22.52;4.72;;;;;;;21.73;68.59;100023.78;5065315;28;20103;-60
2023/07/20 06:10:56;;;;;;;10.63;4.95;;;;;;;21.73;67.81;100026.50;5061936;28;20025;-60
2023/07/20 06:13:22;;;;;;;22.00;4.03;;;;;;;21.79;68.21;100031.44;5064002;28;20352;-60
2023/07/20 06:15:48;;;;;;;7.70;2.10;;;;;;;21.84;68.16;100026.53;5062772;28;20102;-60
2023/07/20 06:18:13;;;;;;;4.70;2.05;;;;;;;21.97;67.99;100028.16;5052283;28;20048;-60
2023/07/20 06:20:39;;;;;;;5.80;2.00;;;;;;;22.11;68.02;100024.34;5088774;28;20049;-60
2023/07/20 06:23:05;;;;;;;12.32;2.38;;;;;;;22.21;66.18;100019.06;5073460;28;20035;-60
2023/07/20 06:25:30;;;;;;;3.78;1.52;;;;;;;22.44;66.23;100034.34;5055570;28;20024;-60
2023/07/20 06:27:56;;;;;;;4.85;1.92;;;;;;;22.54;64.92;100033.50;5066898;28;20025;-60
2023/07/20 06:30:21;;;;;;;4.65;2.00;;;;;;;22.66;65.24;100032.50;5064407;28;20457;-60
2023/07/20 06:32:47;;;;;;;6.60;1.80;;;;;;;22.66;64.70;100032.50;5058262;28;20037;-60
2023/07/20 06:35:13;;;;;;;3.97;1.70;;;;;;;22.72;62.43;100031.09;5069728;28;20182;-59
2023/07/20 06:37:39;;;;;;;4.80;2.40;;;;;;;22.88;63.62;100029.72;5065651;28;20123;-60
2023/07/20 06:40:05;;;;;;;4.38;1.60;;;;;;;23.06;63.32;100027.34;5057413;28;20059;-60
2023/07/20 06:42:31;;;;;;;7.18;1.98;;;;;;;23.03;62.06;100031.16;5065586;28;20029;-60
2023/07/20 06:44:57;;;;;;;5.85;1.77;;;;;;;23.06;61.72;100030.91;5051502;28;20790;-60
2023/07/20 06:47:22;;;;;;;5.30;1.95;;;;;;;23.19;62.82;100030.75;5062709;28;20536;-60
2023/07/20 06:49:48;;;;;;;5.07;1.73;;;;;;;23.24;60.82;100032.06;5050171;28;20124;-60
2023/07/20 06:52:13;;;;;;;2.65;1.65;;;;;;;23.29;61.55;100032.59;5058560;28;20127;-60
2023/07/20 06:54:39;;;;;;;3.15;1.70;;;;;;;23.41;61.72;100026.13;5076733;28;20130;-60
2023/07/20 06:57:05;;;;;;;3.95;1.50;;;;;;;23.57;60.93;100028.41;5048251;28;20648;-60
2023/07/20 06:59:30;;;;;;;4.47;1.77;;;;;;;23.58;60.75;100031.97;5063690;28;20060;-60
2023/07/20 07:01:55;;;;;;;2.95;1.65;;;;;;;23.77;59.89;100022.13;5065735;28;20032;-60
2023/07/20 07:04:21;;;;;;;7.03;1.50;;;;;;;23.96;59.18;100026.78;5071035;28;20148;-60
2023/07/20 07:06:47;;;;;;;5.10;1.45;;;;;;;24.14;58.64;100025.22;5086584;28;20032;-60
2023/07/20 07:09:13;;;;;;;4.68;1.50;;;;;;;24.33;57.05;100025.31;5084155;28;20028;-60
2023/07/20 07:11:39;;;;;;;6.95;1.80;;;;;;;24.43;57.11;100024.34;5070281;28;20020;-60
2023/07/20 07:14:04;;;;;;;6.05;1.60;;;;;;;24.54;57.52;100024.25;5085717;28;20142;-60
2023/07/20 07:16:29;;;;;;;4.82;1.70;;;;;;;24.60;56.05;100025.56;5085235;28;20063;-60
2023/07/20 07:18:55;;;;;;;6.03;1.15;;;;;;;24.60;57.51;100017.38;5082946;28;20119;-60
2023/07/20 07:21:20;;;;;;;5.72;1.63;;;;;;;24.64;56.49;100018.84;5073962;28;20054;-60
2023/07/20 07:23:47;;;;;;;3.88;1.42;;;;;;;24.93;55.43;100021.66;5073347;28;20020;-60
2023/07/20 07:26:12;;;;;;;2.85;1.30;;;;;;;25.13;54.86;100016.13;5074187;28;20024;-60
2023/07/20 07:28:38;;;;;;;3.03;1.50;;;;;;;25.07;54.01;100016.69;5085559;28;20097;-60
2023/07/20 07:31:07;;;;;;;4.22;1.38;;;;;;;25.29;54.76;100018.25;5079196;28;20089;-60
2023/07/20 07:33:33;;;;;;;2.78;1.23;;;;;;;25.36;53.47;100012.16;5083853;28;20395;-60
2023/07/20 07:35:58;;;;;;;4.35;1.33;;;;;;;25.64;52.56;100022.16;5077687;28;20040;-59
2023/07/20 07:38:24;;;;;;;3.15;1.30;;;;;;;25.92;52.80;100010.38;5069034;28;20106;-60
2023/07/20 07:40:49;;;;;;;2.67;1.05;;;;;;;25.98;51.32;100018.97;5071923;28;20028;-59
2023/07/20 07:43:14;;;;;;;4.55;1.70;;;;;;;26.09;53.33;100016.94;5083722;28;20456;-60
2023/07/20 07:45:40;;;;;;;6.35;1.40;;;;;;;26.44;51.10;100027.16;5075986;28;20028;-59
2023/07/20 07:48:08;;;;;;;6.78;1.95;;;;;;;26.79;49.69;100027.28;5083719;28;20107;-60
2023/07/20 07:50:33;;;;;;;4.35;1.48;;;;;;;26.97;49.04;100020.88;5060274;28;20024;-60
2023/07/20 07:52:59;;;;;;;3.60;1.55;;;;;;;27.25;47.12;100016.19;5088664;28;20078;-60
2023/07/20 07:55:28;;;;;;;2.85;1.65;;;;;;;27.61;46.14;100026.13;5077633;28;20111;-60
2023/07/20 07:57:53;;;;;;;4.55;1.48;;;;;;;28.03;45.21;100019.00;5087501;28;20016;-60
2023/07/20 08:00:19;;;;;;;2.38;1.30;;;;;;;28.42;45.31;100025.72;5075963;28;20449;-60
2023/07/20 08:02:46;;;;;;;3.92;1.15;;;;;;;28.30;45.09;100018.81;5086715;28;20531;-60
2023/07/20 08:05:12;;;;;;;5.88;1.10;;;;;;;27.79;45.93;100029.69;5082503;28;20095;-60
2023/07/20 08:07:38;;;;;;;4.13;1.13;;;;;;;27.34;46.17;100028.97;5075511;28;20475;-60
2023/07/20 08:10:04;;;;;;;3.33;1.40;;;;;;;27.59;46.59;100033.66;5081390;28;20047;-60
2023/07/20 08:12:29;;;;;;;2.88;1.23;;;;;;;27.32;48.10;100028.25;5079780;28;20551;-60
2023/07/20 08:14:54;;;;;;;4.60;1.60;;;;;;;27.83;46.20;100031.13;5073555;28;20094;-60
2023/07/20 08:17:20;;;;;;;4.78;1.10;;;;;;;28.17;45.36;100023.88;5067405;28;20024;-60
2023/07/20 08:19:46;;;;;;;1.23;0.77;;;;;;;28.51;43.66;100025.81;5078582;28;20059;-60
2023/07/20 08:22:12;;;;;;;5.38;1.00;;;;;;;28.38;44.48;100027.06;5073827;28;20032;-60
2023/07/20 08:24:41;;;;;;;2.72;1.15;;;;;;;28.69;43.89;100024.69;5081046;28;20040;-60
2023/07/20 08:27:07;;;;;;;3.85;1.10;;;;;;;28.79;43.77;100025.44;5078988;28;20051;-61
2023/07/20 08:29:32;;;;;;;3.10;1.20;;;;;;;28.98;44.10;100027.03;5077720;28;20101;-60
2023/07/20 08:31:57;;;;;;;5.82;1.17;;;;;;;29.23;43.02;100021.47;5087135;28;20028;-61
2023/07/20 08:34:23;;;;;;;2.63;1.10;;;;;;;29.37;42.12;100025.44;5086746;28;20035;-61
2023/07/20 08:36:48;;;;;;;2.70;1.20;;;;;;;29.28;42.13;100020.97;5087945;28;20066;-60
2023/07/20 08:39:14;;;;;;;2.40;1.05;;;;;;;29.22;42.29;100032.59;5086438;28;20123;-61
2023/07/20 08:41:46;;;;;;;2.65;1.20;;;;;;;29.07;42.00;100039.72;5067991;28;20115;-60
2023/07/20 08:44:12;;;;;;;2.73;1.20;;;;;;;29.56;41.73;100036.06;5067282;28;20459;-61
2023/07/20 08:46:38;;;;;;;2.20;1.00;;;;;;;30.02;40.80;100026.31;5078903;28;20278;-61
2023/07/20 08:49:04;;;;;;;2.55;0.88;;;;;;;30.29;40.14;100029.59;5087883;28;20101;-60
2023/07/20 08:51:30;;;;;;;2.05;1.05;;;;;;;30.25;37.89;100028.22;5085850;28;20537;-61
2023/07/20 08:53:56;;;;;;;2.80;1.08;;;;;;;30.53;38.78;100023.16;5087151;28;20063;-61
2023/07/20 08:56:25;;;;;;;4.28;1.23;;;;;;;30.70;40.53;100020.19;5086137;28;20039;-61
2023/07/20 08:58:51;;;;;;;3.25;1.00;;;;;;;30.55;39.04;100021.97;5086137;28;20037;-61
2023/07/20 09:01:18;;;;;;;1.77;1.00;;;;;;;29.93;39.78;100022.75;5086200;28;20024;-61
2023/07/20 09:03:45;;;;;;;3.22;1.10;;;;;;;29.35;40.98;100013.78;5085095;28;20039;-60
2023/07/20 09:06:10;;;;;;;3.30;1.15;;;;;;;28.92;43.23;100020.34;5073044;28;20045;-60
2023/07/20 09:08:42;;;;;;;4.43;1.20;;;;;;;28.54;40.57;100028.22;5076001;28;20100;-61
2023/07/20 09:11:11;;;;;;;2.10;1.08;;;;;;;28.50;41.53;100013.16;5084507;28;20036;-61
2023/07/20 09:13:37;;;;;;;2.35;1.23;;;;;;;28.34;41.49;100013.88;5086110;28;20036;-61
2023/07/20 09:16:04;;;;;;;2.85;0.95;;;;;;;28.02;43.22;100020.00;5085527;28;20032;-60
2023/07/20 09:18:32;;;;;;;2.40;1.10;;;;;;;28.38;42.88;100021.59;5085926;28;20363;-61
2023/07/20 09:21:00;;;;;;;4.57;1.30;;;;;;;29.04;42.88;100010.78;5081979;28;20024;-60
2023/07/20 09:23:33;;;;;;;1.58;0.80;;;;;;;29.29;40.86;100011.72;5083660;28;20200;-61
2023/07/20 09:25:58;;;;;;;2.47;1.10;;;;;;;29.40;40.06;100003.19;5086702;28;20041;-61
2023/07/20 09:28:24;;;;;;;2.47;1.10;;;;;;;29.43;39.94;100014.66;5086289;28;20378;-61
2023/07/20 09:30:49;;;;;;;4.50;1.42;;;;;;;29.12;40.78;100010.84;5086886;28;20028;-61
2023/07/20 09:33:19;;;;;;;2.35;0.90;;;;;;;29.26;40.36;100001.09;5086070;28;20028;-61
2023/07/20 09:35:45;;;;;;;1.25;0.70;;;;;;;29.79;39.98;100006.97;5086355;28;20027;-61
2023/07/20 09:38:10;;;;;;;2.35;0.98;;;;;;;30.19;38.44;100004.19;5075145;28;20341;-60
2023/07/20 09:40:39;;;;;;;2.70;0.80;;;;;;;30.27;37.38;99998.72;5068732;28;20024;-60
2023/07/20 09:43:08;;;;;;;2.53;1.00;;;;;;;30.89;37.20;99995.03;5085843;28;20077;-61
2023/07/20 09:45:36;;;;;;;2.92;1.27;;;;;;;31.37;36.87;99993.09;5087016;28;20035;-61
2023/07/20 09:48:08;;;;;;;5.15;1.15;;;;;;;31.72;36.53;99986.94;5086602;28;20046;-61
2023/07/20 09:50:40;;;;;;;2.83;0.70;;;;;;;32.28;36.89;99989.16;5077169;28;20032;-61
2023/07/20 09:53:06;;;;;;;2.10;0.90;;;;;;;31.99;36.08;99987.22;5066312;28;20024;-60
2023/07/20 09:55:33;;;;;;;3.25;0.80;;;;;;;31.90;35.15;99984.72;5070817;28;20452;-61
2023/07/20 09:58:00;;;;;;;2.38;0.70;;;;;;;31.08;34.86;99987.38;5075022;28;20544;-61
2023/07/20 10:00:25;;;;;;;2.47;0.88;;;;;;;31.21;35.89;99974.75;5070009;28;20076;-61
2023/07/20 10:02:52;;;;;;;2.53;0.70;;;;;;;31.39;35.35;99975.34;5072477;28;20123;-61
2023/07/20 10:05:18;;;;;;;3.78;1.25;;;;;;;31.31;35.33;99978.13;5071262;28;20670;-61
2023/07/20 10:07:49;;;;;;;2.65;0.90;;;;;;;31.07;36.07;99972.78;5068641;28;20032;-61
2023/07/20 10:10:19;;;;;;;1.98;0.80;;;;;;;31.48;35.61;99970.66;5069842;28;20017;-61
2023/07/20 10:12:49;;;;;;;2.58;0.70;;;;;;;31.47;33.13;99966.16;5071534;28;20020;-61
2023/07/20 10:15:29;;;;;;;2.35;0.80;;;;;;;31.98;33.94;99966.25;5069998;28;20111;-61
2023/07/20 10:18:04;;;;;;;3.83;0.70;;;;;;;32.66;34.55;99965.13;5069050;28;20081;-60
2023/07/20 10:20:31;;;;;;;2.28;0.70;;;;;;;33.00;33.17;99963.47;5082026;28;20559;-61
2023/07/20 10:22:57;;;;;;;2.67;0.80;;;;;;;33.02;32.36;99960.53;5072981;28;20103;-61
2023/07/20 10:25:23;;;;;;;2.25;0.80;;;;;;;33.35;31.68;99959.84;5076641;28;20431;-62
2023/07/20 10:27:49;;;;;;;1.38;0.73;;;;;;;33.21;32.27;99960.72;5077305;28;20100;-61
2023/07/20 10:30:15;;;;;;;2.42;0.77;;;;;;;33.53;30.90;99959.41;5089106;28;20078;-61
2023/07/20 10:32:42;;;;;;;3.40;0.73;;;;;;;33.82;30.39;99958.38;5087509;28;20665;-61
2023/07/20 10:35:15;;;;;;;2.13;0.70;;;;;;;33.71;30.06;99953.41;5074913;28;20111;-61
2023/07/20 10:37:50;;;;;;;1.15;0.40;;;;;;;33.38;30.41;99952.22;5086303;28;20035;-61
2023/07/20 10:40:38;;;;;;;2.58;0.85;;;;;;;32.95;30.37;99957.69;5069931;28;20086;-60
2023/07/20 10:43:09;;;;;;;1.23;0.60;;;;;;;33.07;29.25;99941.50;5074274;28;20607;-61
2023/07/20 10:45:42;;;;;;;2.03;0.70;;;;;;;32.93;30.37;99943.25;5081505;28;20034;-61
2023/07/20 10:48:20;;;;;;;2.67;0.75;;;;;;;33.26;29.81;99951.91;5069162;28;20737;-61
2023/07/20 10:51:05;;;;;;;0.93;0.52;;;;;;;33.27;29.37;99948.94;5075346;28;20119;-61
2023/07/20 10:53:31;;;;;;;1.98;0.60;;;;;;;33.21;29.62;99944.19;5084652;28;20534;-61
2023/07/20 10:56:13;;;;;;;5.03;0.70;;;;;;;33.18;27.86;99929.97;5079831;28;20032;-61
2023/07/20 10:58:40;;;;;;;1.98;0.70;;;;;;;32.88;29.42;99931.91;5073383;28;20032;-61
2023/07/20 11:01:06;;;;;;;1.13;0.63;;;;;;;32.85;29.48;99939.75;5077757;28;20034;-61
2023/07/20 11:03:33;;;;;;;1.75;0.70;;;;;;;33.07;30.64;99936.84;5070966;28;20036;-61
2023/07/20 11:05:59;;;;;;;2.28;0.80;;;;;;;33.52;29.26;99934.78;5067910;28;20483;-61
2023/07/20 11:08:43;;;;;;;3.08;0.80;;;;;;;33.79;28.02;99925.66;5079200;28;20020;-61
2023/07/20 11:11:22;;;;;;;1.95;0.63;;;;;;;33.93;27.91;99922.84;5083960;28;20098;-61
2023/07/20 11:13:59;;;;;;;1.65;0.80;;;;;;;34.09;28.39;99921.66;5080421;28;20024;-61
2023/07/20 11:16:40;;;;;;;1.42;0.60;;;;;;;34.34;29.11;99920.09;5084698;28;20055;-61
2023/07/20 11:19:14;;;;;;;3.13;0.75;;;;;;;34.05;28.65;99914.84;5071889;28;22207;-61
2023/07/20 11:21:41;;;;;;;2.58;0.82;;;;;;;34.30;29.29;99916.06;5076986;28;20028;-61
2023/07/20 11:24:09;;;;;;;0.88;0.40;;;;;;;34.57;29.61;99923.44;5074190;28;20056;-62
2023/07/20 11:26:53;;;;;;;3.28;0.70;;;;;;;34.95;28.42;99916.38;5080907;28;20024;-61
2023/07/20 11:29:20;;;;;;;1.85;0.70;;;;;;;35.25;28.50;99909.44;5070681;28;20086;-61